Time;durP1;ratioP1;P1;durP2;ratioP2;P2;SDS_P1;SDS_P2;PMS_P1;PMS_P2;Temp;Humidity;BMP_temperature;BMP_pressure;BME280_temperature;BME280_humidity;BME280_pressure;Samples;Min_cycle;Max_cycle;Signal;HPM_P1;HPM_P2
2021/04/09 00:00:25;;;;;;;19.50;10.23;;;;;;;-0.63;75.45;100760.34;2082131;28;20036;-82
2021/04/09 00:01:25;;;;;;;16.45;9.73;;;;;;;-0.53;75.30;100758.84;2082000;28;20079;-82
2021/04/09 00:02:28;;;;;;;16.70;10.30;;;;;;;-0.55;75.52;100757.97;2082009;28;20113;-81
2021/04/09 00:03:28;;;;;;;16.40;10.27;;;;;;;-0.49;75.39;100760.66;2080902;28;20040;-79
2021/04/09 00:04:28;;;;;;;18.93;11.17;;;;;;;-0.32;74.45;100759.38;2081803;28;20029;-79
2021/04/09 00:05:30;;;;;;;19.30;10.67;;;;;;;-0.21;73.94;100758.75;2073228;28;20113;-79
2021/04/09 00:06:30;;;;;;;16.45;9.98;;;;;;;-0.26;74.03;100765.47;2073251;28;20119;-77
2021/04/09 00:07:30;;;;;;;17.90;9.10;;;;;;;-0.29;73.89;100771.38;2081937;28;20084;-79
2021/04/09 00:08:31;;;;;;;15.60;9.57;;;;;;;-0.20;73.36;100766.50;2082145;28;20112;-80
2021/04/09 00:09:32;;;;;;;15.83;9.50;;;;;;;-0.22;73.49;100760.47;2081944;28;20400;-80
2021/04/09 00:10:32;;;;;;;16.00;8.50;;;;;;;-0.23;73.45;100762.97;2082015;28;20052;-80
2021/04/09 00:11:32;;;;;;;14.03;8.40;;;;;;;-0.18;73.42;100758.84;2073065;28;20113;-80
2021/04/09 00:12:33;;;;;;;15.73;8.00;;;;;;;-0.14;73.16;100757.19;2073256;28;20030;-86
2021/04/09 00:13:33;;;;;;;14.02;7.88;;;;;;;-0.10;72.87;100754.75;2072921;28;20017;-83
2021/04/09 00:14:34;;;;;;;14.83;8.33;;;;;;;0.03;72.21;100750.75;2065039;28;20038;-85
2021/04/09 00:15:35;;;;;;;12.67;7.97;;;;;;;-0.04;72.47;100743.75;2073188;28;20022;-85
2021/04/09 00:16:35;;;;;;;12.18;8.23;;;;;;;-0.02;72.22;100754.91;2081689;28;20017;-82
2021/04/09 00:17:36;;;;;;;12.53;7.77;;;;;;;-0.12;72.59;100760.66;2081902;28;20483;-82
2021/04/09 00:18:36;;;;;;;11.95;7.43;;;;;;;-0.22;72.68;100749.31;2081941;28;20033;-76
2021/04/09 00:19:37;;;;;;;13.70;7.43;;;;;;;-0.22;72.79;100754.44;2081885;28;20091;-77
2021/04/09 00:20:37;;;;;;;12.53;7.53;;;;;;;-0.08;72.52;100744.50;2082047;28;20033;-77
2021/04/09 00:21:37;;;;;;;12.17;7.90;;;;;;;-0.10;72.24;100741.94;2081899;28;20476;-77
2021/04/09 00:22:37;;;;;;;11.63;7.60;;;;;;;-0.24;72.95;100740.75;2081926;28;20036;-78
2021/04/09 00:23:38;;;;;;;12.90;7.10;;;;;;;-0.33;73.17;100739.69;2081869;28;20394;-77
2021/04/09 00:24:38;;;;;;;15.00;7.87;;;;;;;-0.39;73.40;100738.72;2082442;28;20022;-77
2021/04/09 00:25:38;;;;;;;10.07;7.30;;;;;;;-0.26;73.11;100747.53;2074243;28;20559;-77
2021/04/09 00:26:40;;;;;;;13.27;8.13;;;;;;;-0.39;73.58;100731.88;2073687;28;20033;-78
2021/04/09 00:27:40;;;;;;;12.88;7.78;;;;;;;-0.40;73.54;100737.00;2074050;28;20101;-77
2021/04/09 00:28:41;;;;;;;9.35;7.22;;;;;;;-0.48;73.72;100744.47;2074206;28;20554;-75
2021/04/09 00:29:41;;;;;;;11.57;7.40;;;;;;;-0.48;73.41;100741.91;2079568;28;20029;-76
2021/04/09 00:30:41;;;;;;;14.47;7.20;;;;;;;-0.53;73.65;100741.81;2082113;28;20036;-77
2021/04/09 00:31:42;;;;;;;12.53;7.57;;;;;;;-0.53;73.99;100744.38;2081978;28;20021;-76
2021/04/09 00:32:42;;;;;;;12.67;8.53;;;;;;;-0.56;74.24;100740.88;2073211;28;20076;-76
2021/04/09 00:33:42;;;;;;;10.67;7.33;;;;;;;-0.64;74.15;100736.41;2072977;28;20057;-76
2021/04/09 00:34:43;;;;;;;14.23;7.50;;;;;;;-0.63;74.14;100737.28;2081755;28;20029;-76
2021/04/09 00:35:43;;;;;;;15.33;8.10;;;;;;;-0.67;74.44;100730.34;2081842;28;20028;-76
2021/04/09 00:36:44;;;;;;;13.55;7.82;;;;;;;-0.70;74.25;100736.28;2072681;28;20384;-76
2021/04/09 00:37:44;;;;;;;16.80;7.60;;;;;;;-0.51;73.98;100732.47;2072900;28;20064;-76
2021/04/09 00:38:45;;;;;;;13.80;7.82;;;;;;;-0.48;73.94;100736.81;2081746;28;20027;-77
2021/04/09 00:39:45;;;;;;;11.45;7.72;;;;;;;-0.58;74.26;100729.72;2081784;28;20451;-78
2021/04/09 00:40:46;;;;;;;11.27;7.90;;;;;;;-0.57;74.41;100734.03;2081541;28;20033;-76
2021/04/09 00:41:46;;;;;;;12.07;7.43;;;;;;;-0.55;74.60;100737.50;2076923;28;20025;-77
2021/04/09 00:42:46;;;;;;;13.77;8.33;;;;;;;-0.59;74.63;100731.44;2073420;28;20079;-77
2021/04/09 00:43:47;;;;;;;11.83;7.80;;;;;;;-0.63;74.87;100733.03;2073591;28;20028;-77
2021/04/09 00:44:54;;;;;;;11.77;7.28;;;;;;;-0.53;75.14;100730.69;2072842;28;20032;-76
2021/04/09 00:45:55;;;;;;;11.25;7.25;;;;;;;-0.56;75.01;100728.06;2072907;28;20073;-76
2021/04/09 00:46:55;;;;;;;10.10;7.60;;;;;;;-0.59;74.99;100723.75;2075708;28;20050;-76
2021/04/09 00:47:55;;;;;;;13.87;7.73;;;;;;;-0.53;74.90;100723.00;2081644;28;20438;-76
2021/04/09 00:48:55;;;;;;;13.17;7.90;;;;;;;-0.47;74.80;100724.03;2081523;28;20028;-76
2021/04/09 00:49:55;;;;;;;11.43;7.57;;;;;;;-0.43;74.27;100722.38;2072887;28;20018;-77
2021/04/09 00:50:56;;;;;;;11.83;7.70;;;;;;;-0.53;74.86;100718.75;2066119;28;20023;-76
2021/04/09 00:51:56;;;;;;;14.97;8.07;;;;;;;-0.43;74.64;100724.09;2064726;28;20022;-75
2021/04/09 00:52:59;;;;;;;13.83;8.33;;;;;;;-0.40;74.32;100725.03;2064757;28;20018;-82
2021/04/09 00:54:01;;;;;;;14.80;7.70;;;;;;;-0.49;74.45;100724.81;2073526;28;20049;-82
2021/04/09 00:55:03;;;;;;;13.27;7.10;;;;;;;-0.47;74.41;100725.72;2073312;28;20040;-81
2021/04/09 00:56:06;;;;;;;13.23;7.20;;;;;;;-0.39;74.07;100718.22;2073323;28;20202;-81
2021/04/09 00:57:06;;;;;;;13.27;7.25;;;;;;;-0.33;74.13;100723.47;2073551;28;20033;-84
2021/04/09 00:58:06;;;;;;;13.07;7.77;;;;;;;-0.39;74.00;100723.34;2073505;28;20433;-82
2021/04/09 00:59:07;;;;;;;12.10;8.20;;;;;;;-0.43;74.39;100721.53;2073242;28;20049;-86
2021/04/09 01:00:10;;;;;;;12.30;7.73;;;;;;;-0.35;73.92;100718.34;2073535;28;20109;-86
2021/04/09 01:01:10;;;;;;;12.25;7.57;;;;;;;-0.41;73.98;100722.44;2073253;28;20029;-83
2021/04/09 01:02:11;;;;;;;10.40;7.30;;;;;;;-0.45;74.16;100721.50;2073502;28;20032;-83
2021/04/09 01:03:11;;;;;;;14.03;7.40;;;;;;;-0.35;73.94;100713.22;2073355;28;20403;-85
2021/04/09 01:04:12;;;;;;;12.53;7.47;;;;;;;-0.41;74.39;100715.63;2073378;28;20026;-84
2021/04/09 01:05:15;;;;;;;12.27;8.20;;;;;;;-0.50;74.46;100717.97;2073883;28;20064;-82
2021/04/09 01:06:15;;;;;;;12.60;8.23;;;;;;;-0.48;74.67;100711.19;2073117;28;20021;-82
2021/04/09 01:07:17;;;;;;;12.57;8.57;;;;;;;-0.43;74.76;100716.41;2073281;28;20030;-82
2021/04/09 01:08:17;;;;;;;14.68;9.13;;;;;;;-0.34;74.24;100714.06;2073176;28;20026;-82
2021/04/09 01:09:17;;;;;;;17.83;9.07;;;;;;;-0.30;74.31;100708.19;2073397;28;20108;-82
2021/04/09 01:10:19;;;;;;;15.20;9.60;;;;;;;-0.47;74.68;100707.81;2073393;28;20060;-81
2021/04/09 01:11:20;;;;;;;13.73;8.80;;;;;;;-0.53;74.82;100712.75;2073454;28;20084;-82
2021/04/09 01:12:20;;;;;;;14.20;8.60;;;;;;;-0.55;74.71;100711.88;2073240;28;20026;-82
2021/04/09 01:13:20;;;;;;;12.13;8.50;;;;;;;-0.55;75.02;100711.88;2064550;28;20030;-82
2021/04/09 01:14:21;;;;;;;12.10;7.73;;;;;;;-0.50;74.58;100702.59;2064542;28;20293;-83
2021/04/09 01:15:22;;;;;;;12.80;8.13;;;;;;;-0.37;73.90;100707.19;2072966;28;20551;-83
2021/04/09 01:16:31;;;;;;;13.18;8.23;;;;;;;-0.34;73.78;100712.34;2073142;28;20069;-83
2021/04/09 01:17:49;;;;;;;13.75;7.97;;;;;;;-0.21;73.47;100703.28;2075264;28;20536;-82
2021/04/09 01:19:01;;;;;;;11.73;7.50;;;;;;;-0.23;73.23;100702.38;2080612;28;20104;-82
2021/04/09 01:20:22;;;;;;;12.77;7.40;;;;;;;-0.26;73.44;100706.56;2072556;28;20045;-82
2021/04/09 01:22:01;;;;;;;18.25;9.05;;;;;;;-0.38;73.94;100702.88;2075712;28;20507;-83
2021/04/09 01:23:10;;;;;;;15.60;8.88;;;;;;;-0.45;74.39;100703.59;2055863;28;20044;-82
2021/04/09 01:24:19;;;;;;;11.80;7.40;;;;;;;-0.49;74.33;100697.50;2055818;28;20044;-82
2021/04/09 01:25:57;;;;;;;11.43;7.82;;;;;;;-0.52;74.58;100697.47;2063603;28;20054;-83
2021/04/09 01:27:48;;;;;;;14.80;7.70;;;;;;;-0.45;74.31;100701.03;2080856;28;20036;-82
2021/04/09 01:29:27;;;;;;;13.63;8.50;;;;;;;-0.36;73.75;100701.22;2039973;29;20027;-84
2021/04/09 01:30:40;;;;;;;15.18;8.18;;;;;;;-0.29;73.77;100698.78;2080619;28;20036;-85
2021/04/09 01:32:09;;;;;;;13.95;8.38;;;;;;;-0.34;73.54;100697.00;2079358;28;20071;-83
2021/04/09 01:33:10;;;;;;;13.18;8.23;;;;;;;-0.45;74.04;100705.25;2064853;28;20068;-82
2021/04/09 01:34:12;;;;;;;15.38;8.13;;;;;;;-0.49;74.45;100696.66;2081224;28;20041;-82
2021/04/09 01:35:15;;;;;;;13.77;8.88;;;;;;;-0.52;74.33;100696.56;2081216;28;20025;-81
2021/04/09 01:36:22;;;;;;;12.98;7.82;;;;;;;-0.48;73.97;100701.78;2072068;28;20037;-85
2021/04/09 01:37:26;;;;;;;12.93;8.00;;;;;;;-0.58;74.26;100694.72;2066923;28;20026;-82
2021/04/09 01:38:31;;;;;;;11.50;7.93;;;;;;;-0.56;74.17;100697.34;2073009;28;20391;-82
2021/04/09 01:39:41;;;;;;;12.73;8.88;;;;;;;-0.60;74.57;100690.41;2073184;28;20034;-80
2021/04/09 01:40:44;;;;;;;13.35;8.10;;;;;;;-0.59;74.67;100692.16;2072961;28;20111;-81
2021/04/09 01:41:49;;;;;;;14.60;8.57;;;;;;;-0.60;74.48;100696.41;2073059;28;20022;-80
2021/04/09 01:42:54;;;;;;;12.35;8.20;;;;;;;-0.61;74.32;100693.81;2072930;28;20021;-81
2021/04/09 01:43:59;;;;;;;15.15;8.57;;;;;;;-0.56;74.51;100692.22;2072814;28;20025;-81
2021/04/09 01:45:01;;;;;;;12.50;7.93;;;;;;;-0.55;74.31;100691.41;2072842;28;20022;-80
2021/04/09 01:46:03;;;;;;;11.68;8.15;;;;;;;-0.60;74.33;100688.72;2072839;28;20113;-80
2021/04/09 01:47:05;;;;;;;12.82;8.18;;;;;;;-0.55;74.25;100684.56;2076372;28;20021;-80
2021/04/09 01:48:08;;;;;;;14.75;8.55;;;;;;;-0.61;74.50;100688.69;2081080;28;20130;-80
2021/04/09 01:49:11;;;;;;;16.48;8.70;;;;;;;-0.70;74.67;100690.19;2081096;28;20387;-81
2021/04/09 01:50:14;;;;;;;14.57;8.77;;;;;;;-0.61;74.33;100686.13;2081079;28;20115;-83
2021/04/09 01:51:16;;;;;;;13.95;8.50;;;;;;;-0.52;73.87;100686.31;2072316;28;20036;-83
2021/04/09 01:52:17;;;;;;;16.15;9.07;;;;;;;-0.61;74.24;100678.44;2072431;28;20080;-83
2021/04/09 01:53:18;;;;;;;15.88;9.40;;;;;;;-0.55;74.08;100679.44;2080969;28;20025;-83
2021/04/09 01:54:20;;;;;;;18.00;9.95;;;;;;;-0.48;73.96;100676.19;2081214;28;20025;-81
2021/04/09 01:55:22;;;;;;;17.45;9.65;;;;;;;-0.53;73.88;100679.47;2081117;28;20033;-81
2021/04/09 01:56:23;;;;;;;17.80;9.95;;;;;;;-0.38;73.39;100677.28;2072154;28;20028;-81
2021/04/09 01:57:25;;;;;;;17.45;9.90;;;;;;;-0.35;73.01;100679.91;2072315;28;20105;-82
2021/04/09 01:58:28;;;;;;;15.25;9.50;;;;;;;-0.24;72.78;100679.25;2081091;28;20029;-83
2021/04/09 01:59:31;;;;;;;14.90;9.52;;;;;;;-0.33;73.18;100675.66;2081026;28;20022;-83
2021/04/09 02:00:32;;;;;;;16.45;10.15;;;;;;;-0.17;73.03;100670.91;2072116;28;20040;-83
2021/04/09 02:01:35;;;;;;;19.73;10.15;;;;;;;-0.29;73.17;100673.19;2072274;28;20030;-81
2021/04/09 02:02:38;;;;;;;20.00;10.60;;;;;;;-0.34;73.52;100671.38;2081080;28;20033;-81
2021/04/09 02:03:41;;;;;;;13.60;9.68;;;;;;;-0.39;73.46;100670.41;2080931;28;20075;-81
2021/04/09 02:04:42;;;;;;;16.10;10.27;;;;;;;-0.29;73.50;100668.91;2072263;28;20040;-81
2021/04/09 02:05:42;;;;;;;18.63;10.10;;;;;;;-0.26;73.40;100668.13;2072322;28;20014;-81
2021/04/09 02:06:43;;;;;;;16.53;9.80;;;;;;;-0.30;73.29;100668.88;2080918;28;20052;-83
2021/04/09 02:07:46;;;;;;;17.20;9.77;;;;;;;-0.33;73.87;100664.56;2081513;28;20026;-82
2021/04/09 02:08:47;;;;;;;18.70;10.18;;;;;;;-0.33;73.77;100664.56;2081676;28;20083;-81
2021/04/09 02:09:49;;;;;;;19.77;10.30;;;;;;;-0.38;73.90;100661.03;2081534;28;20471;-80
2021/04/09 02:10:50;;;;;;;18.38;9.95;;;;;;;-0.39;74.28;100659.31;2081772;28;20025;-80
2021/04/09 02:11:51;;;;;;;15.70;9.50;;;;;;;-0.27;73.73;100658.72;2081634;28;20492;-80
2021/04/09 02:12:53;;;;;;;17.95;9.77;;;;;;;-0.32;74.00;100661.19;2081362;28;20033;-80
2021/04/09 02:13:54;;;;;;;16.15;9.50;;;;;;;-0.41;74.43;100669.53;2081045;28;20483;-80
2021/04/09 02:14:56;;;;;;;14.25;9.65;;;;;;;-0.37;74.46;100665.31;2080946;28;20396;-80
2021/04/09 02:15:57;;;;;;;16.52;9.50;;;;;;;-0.44;74.71;100656.63;2080947;28;20017;-80
2021/04/09 02:16:59;;;;;;;16.30;9.32;;;;;;;-0.42;74.95;100665.22;2080808;28;20556;-80
2021/04/09 02:17:59;;;;;;;15.68;9.50;;;;;;;-0.41;74.99;100663.53;2081094;28;20602;-80
2021/04/09 02:19:00;;;;;;;13.65;8.60;;;;;;;-0.43;75.15;100667.75;2080973;28;20017;-80
2021/04/09 02:20:02;;;;;;;15.40;8.83;;;;;;;-0.50;75.53;100664.19;2081108;28;20025;-79
2021/04/09 02:21:03;;;;;;;13.05;8.60;;;;;;;-0.51;75.34;100659.91;2081080;28;20029;-79
2021/04/09 02:22:04;;;;;;;14.07;8.88;;;;;;;-0.54;75.55;100668.38;2081006;28;20056;-80
2021/04/09 02:23:04;;;;;;;14.63;8.93;;;;;;;-0.57;75.78;100665.75;2071909;28;20033;-80
2021/04/09 02:24:06;;;;;;;14.63;8.60;;;;;;;-0.53;75.36;100661.56;2072078;28;20109;-79
2021/04/09 02:25:07;;;;;;;16.02;9.38;;;;;;;-0.60;75.78;100662.25;2080292;28;20057;-79
2021/04/09 02:26:07;;;;;;;20.00;9.88;;;;;;;-0.49;75.25;100673.59;2080196;28;20029;-79
2021/04/09 02:27:09;;;;;;;14.23;9.43;;;;;;;-0.54;75.07;100670.09;2081303;28;20029;-79
2021/04/09 02:28:10;;;;;;;16.40;10.07;;;;;;;-0.59;75.50;100671.66;2082652;28;20044;-79
2021/04/09 02:29:11;;;;;;;18.67;11.23;;;;;;;-0.60;75.36;100665.69;2082663;28;20490;-80
2021/04/09 02:30:13;;;;;;;22.27;12.52;;;;;;;-0.63;75.37;100671.59;2082416;28;20039;-79
2021/04/09 02:31:14;;;;;;;19.95;12.05;;;;;;;-0.64;75.13;100674.97;2082569;28;20464;-80
2021/04/09 02:32:16;;;;;;;24.20;13.23;;;;;;;-0.55;74.60;100682.00;2082380;28;20021;-79
2021/04/09 02:33:16;;;;;;;22.63;12.35;;;;;;;-0.60;75.00;100675.94;2082383;28;20061;-79
2021/04/09 02:34:16;;;;;;;24.10;13.53;;;;;;;-0.48;74.36;100670.22;2082693;28;20036;-79
2021/04/09 02:35:17;;;;;;;21.97;13.47;;;;;;;-0.59;74.50;100672.56;2082785;28;20087;-79
2021/04/09 02:36:23;;;;;;;22.53;13.37;;;;;;;-0.58;74.18;100678.53;2082559;28;20108;-80
2021/04/09 02:37:23;;;;;;;25.10;13.00;;;;;;;-0.49;73.87;100679.59;2081873;28;20033;-79
2021/04/09 02:38:27;;;;;;;19.48;12.65;;;;;;;-0.59;74.30;100674.22;2082507;28;20025;-79
2021/04/09 02:39:30;;;;;;;22.13;13.00;;;;;;;-0.66;74.44;100671.53;2082349;28;20052;-81
2021/04/09 02:40:34;;;;;;;22.85;12.88;;;;;;;-0.63;74.48;100663.91;2075551;28;20650;-82
2021/04/09 02:41:38;;;;;;;24.20;13.30;;;;;;;-0.65;74.35;100657.03;2074395;28;20145;-81
2021/04/09 02:42:39;;;;;;;22.23;13.73;;;;;;;-0.70;74.76;100667.16;2080828;28;20021;-82
2021/04/09 02:43:40;;;;;;;20.15;12.77;;;;;;;-0.72;74.88;100670.53;2082416;28;20089;-81
2021/04/09 02:44:41;;;;;;;20.25;12.95;;;;;;;-0.75;75.21;100671.31;2082619;28;20520;-82
2021/04/09 02:45:41;;;;;;;24.73;13.63;;;;;;;-0.77;75.33;100667.84;2082505;28;20040;-82
2021/04/09 02:47:17;;;;;;;25.60;13.75;;;;;;;-0.76;75.39;100666.16;2082293;28;20033;-82
2021/04/09 02:48:19;;;;;;;22.52;12.85;;;;;;;-0.84;75.80;100665.97;2082506;28;20033;-82
2021/04/09 02:49:38;;;;;;;19.63;11.75;;;;;;;-0.67;75.67;100664.69;2082147;28;20033;-82
2021/04/09 02:50:45;;;;;;;21.15;11.95;;;;;;;-0.76;75.96;100663.59;2081535;28;20026;-82
2021/04/09 02:51:47;;;;;;;21.48;11.60;;;;;;;-0.84;76.23;100660.88;2082409;28;20096;-83
2021/04/09 02:52:52;;;;;;;24.83;12.40;;;;;;;-0.80;76.21;100658.41;2082097;28;20112;-83
2021/04/09 02:53:56;;;;;;;21.90;12.45;;;;;;;-0.74;76.42;100655.13;2082079;28;20033;-83
2021/04/09 02:55:00;;;;;;;20.33;11.50;;;;;;;-0.74;76.53;100657.69;2082510;28;20045;-83
2021/04/09 02:56:04;;;;;;;16.98;11.00;;;;;;;-0.76;76.56;100651.66;2081562;28;20052;-83
2021/04/09 02:57:05;;;;;;;19.58;12.00;;;;;;;-0.72;76.76;100656.00;2081761;28;20587;-83
2021/04/09 02:58:07;;;;;;;19.23;11.65;;;;;;;-0.78;77.02;100653.31;2082384;28;20029;-82
2021/04/09 02:59:11;;;;;;;17.88;11.13;;;;;;;-0.74;77.12;100651.69;2082459;28;20037;-82
2021/04/09 03:00:13;;;;;;;20.52;11.70;;;;;;;-0.74;77.05;100655.13;2081790;28;20491;-82
2021/04/09 03:01:13;;;;;;;17.40;10.80;;;;;;;-0.73;77.20;100661.09;2082483;28;20025;-82
2021/04/09 03:02:14;;;;;;;18.47;10.47;;;;;;;-0.78;77.44;100653.31;2082357;28;20114;-82
2021/04/09 03:03:16;;;;;;;22.90;11.10;;;;;;;-0.80;77.14;100658.41;2073517;28;20101;-80
2021/04/09 03:04:17;;;;;;;20.52;11.23;;;;;;;-0.73;77.37;100653.44;2073667;28;20087;-81
2021/04/09 03:05:19;;;;;;;22.10;12.10;;;;;;;-0.77;77.42;100652.50;2082439;28;20100;-81
2021/04/09 03:06:20;;;;;;;22.38;11.52;;;;;;;-0.69;77.25;100658.66;2082170;28;20057;-81
2021/04/09 03:07:21;;;;;;;17.50;11.80;;;;;;;-0.76;77.49;100654.22;2082042;28;20037;-81
2021/04/09 03:08:22;;;;;;;21.45;12.23;;;;;;;-0.83;77.63;100655.78;2082007;28;20037;-82
2021/04/09 03:09:23;;;;;;;18.30;12.07;;;;;;;-0.77;77.35;100652.50;2082384;28;20025;-82
2021/04/09 03:10:24;;;;;;;17.98;12.20;;;;;;;-0.67;77.47;100657.00;2081910;28;20029;-85
2021/04/09 03:11:24;;;;;;;18.83;11.23;;;;;;;-0.83;78.11;100652.34;2082402;28;20680;-82
2021/04/09 03:12:24;;;;;;;18.80;12.43;;;;;;;-0.85;78.18;100654.88;2082004;28;20491;-83
2021/04/09 03:13:25;;;;;;;19.17;11.83;;;;;;;-0.90;78.30;100651.34;2082199;28;20034;-75
2021/04/09 03:14:27;;;;;;;21.47;13.53;;;;;;;-0.73;77.97;100648.31;2082233;28;20075;-76
2021/04/09 03:15:32;;;;;;;22.83;13.55;;;;;;;-0.76;78.13;100654.22;2082224;28;20036;-76
2021/04/09 03:16:49;;;;;;;25.02;13.48;;;;;;;-0.59;78.40;100646.94;2081991;28;20419;-78
2021/04/09 03:17:58;;;;;;;23.90;13.43;;;;;;;-0.65;78.05;100650.22;2082075;28;20393;-79
2021/04/09 03:18:58;;;;;;;24.20;13.90;;;;;;;-0.67;78.04;100659.56;2082141;28;20048;-79
2021/04/09 03:19:58;;;;;;;25.87;14.30;;;;;;;-0.74;78.51;100651.69;2081876;28;20048;-78
2021/04/09 03:20:58;;;;;;;27.00;15.80;;;;;;;-0.69;78.61;100645.00;2081870;28;20377;-78
2021/04/09 03:21:59;;;;;;;26.57;14.83;;;;;;;-0.71;78.74;100652.63;2082201;28;20079;-78
2021/04/09 03:22:59;;;;;;;28.43;15.80;;;;;;;-0.76;78.62;100649.09;2082096;28;20029;-81
2021/04/09 03:23:59;;;;;;;25.30;14.97;;;;;;;-0.76;78.66;100659.34;2082197;28;20032;-77
2021/04/09 03:25:00;;;;;;;25.03;14.93;;;;;;;-0.80;78.90;100649.84;2082259;28;20044;-77
2021/04/09 03:26:00;;;;;;;25.15;14.93;;;;;;;-0.86;79.03;100647.16;2082094;28;20033;-77
2021/04/09 03:27:01;;;;;;;27.67;16.70;;;;;;;-0.84;79.34;100648.06;2081971;28;20128;-77
2021/04/09 03:28:02;;;;;;;23.87;14.93;;;;;;;-0.82;79.32;100643.81;2081929;28;20025;-77
2021/04/09 03:29:02;;;;;;;20.60;14.30;;;;;;;-0.87;79.23;100653.97;2082113;28;20028;-78
2021/04/09 03:30:03;;;;;;;25.57;14.83;;;;;;;-0.80;79.08;100642.19;2082213;28;20466;-77
2021/04/09 03:31:04;;;;;;;26.98;14.57;;;;;;;-0.84;79.42;100643.81;2081812;28;20030;-77
2021/04/09 03:32:04;;;;;;;26.37;14.60;;;;;;;-0.92;79.40;100644.44;2081980;28;20108;-77
2021/04/09 03:33:05;;;;;;;22.95;13.70;;;;;;;-0.87;79.80;100640.31;2082087;28;20116;-77
2021/04/09 03:34:05;;;;;;;22.60;13.40;;;;;;;-0.94;79.39;100631.63;2082075;28;20041;-77
2021/04/09 03:35:06;;;;;;;22.53;11.87;;;;;;;-1.00;79.79;100626.38;2082125;28;20032;-76
2021/04/09 03:36:06;;;;;;;18.55;11.63;;;;;;;-1.01;80.07;100632.31;2081951;28;20111;-81
2021/04/09 03:37:07;;;;;;;21.93;11.70;;;;;;;-1.05;80.40;100633.94;2082168;28;20116;-77
2021/04/09 03:38:08;;;;;;;18.05;11.35;;;;;;;-1.00;80.17;100634.91;2081562;28;20097;-77
2021/04/09 03:39:08;;;;;;;19.40;11.30;;;;;;;-0.96;79.72;100631.59;2082135;28;20112;-77
2021/04/09 03:40:09;;;;;;;19.30;11.37;;;;;;;-0.95;79.80;100637.56;2082112;28;20026;-80
2021/04/09 03:41:10;;;;;;;19.35;11.70;;;;;;;-0.96;79.62;100635.84;2081724;28;20408;-80
2021/04/09 03:42:10;;;;;;;18.30;11.17;;;;;;;-0.94;79.50;100634.19;2082061;28;20045;-80
2021/04/09 03:43:12;;;;;;;19.97;10.73;;;;;;;-0.88;78.67;100633.47;2081978;28;20044;-79
2021/04/09 03:44:12;;;;;;;;;;;;;;;-0.85;78.78;100638.66;2082317;28;20717;-82
2021/04/09 03:45:12;;;;;;;15.40;9.48;;;;;;;-0.97;78.77;100627.31;2082078;28;19909;-82
2021/04/09 03:46:13;;;;;;;15.70;10.63;;;;;;;-0.91;79.04;100628.25;2081855;28;20057;-82
2021/04/09 03:47:13;;;;;;;15.00;10.13;;;;;;;-0.93;78.99;100628.22;2082119;28;20029;-82
2021/04/09 03:48:13;;;;;;;19.83;10.03;;;;;;;-0.88;79.03;100628.34;2081835;28;20148;-80
2021/04/09 03:49:14;;;;;;;15.50;9.80;;;;;;;-0.90;79.17;100628.31;2082186;28;20017;-80
2021/04/09 03:50:14;;;;;;;18.70;10.20;;;;;;;-0.87;78.87;100635.19;2081899;28;20040;-82
2021/04/09 03:51:14;;;;;;;17.30;10.40;;;;;;;-0.93;78.95;100623.13;2082131;28;20056;-81
2021/04/09 03:52:15;;;;;;;18.10;9.97;;;;;;;-0.96;79.17;100626.47;2079721;28;20459;-81
2021/04/09 03:53:15;;;;;;;15.50;9.43;;;;;;;-0.93;79.07;100625.69;2081409;28;20115;-81
2021/04/09 03:54:16;;;;;;;16.13;9.60;;;;;;;-0.95;79.27;100615.41;2082024;28;20439;-81
2021/04/09 03:55:16;;;;;;;18.15;10.45;;;;;;;-0.97;79.45;100621.31;2082073;28;20029;-81
2021/04/09 03:56:16;;;;;;;17.43;9.70;;;;;;;-0.86;79.06;100617.31;2081908;28;20025;-81
2021/04/09 03:57:17;;;;;;;15.63;9.80;;;;;;;-0.90;78.93;100607.84;2072941;28;20068;-78
2021/04/09 03:58:17;;;;;;;18.08;10.27;;;;;;;-0.71;78.66;100606.56;2072928;28;20026;-78
2021/04/09 03:59:18;;;;;;;17.50;10.17;;;;;;;-0.76;78.61;100610.72;2082059;28;20116;-79
2021/04/09 04:00:19;;;;;;;16.20;10.37;;;;;;;-0.79;78.60;100603.84;2081544;28;20037;-79
2021/04/09 04:01:19;;;;;;;19.65;11.30;;;;;;;-0.80;78.56;100614.91;2081059;28;20076;-78
2021/04/09 04:02:19;;;;;;;20.03;11.33;;;;;;;-0.83;78.64;100619.94;2080897;28;20110;-79
2021/04/09 04:03:20;;;;;;;18.23;11.67;;;;;;;-0.77;78.28;100616.66;2072091;28;20536;-79
2021/04/09 04:04:20;;;;;;;15.87;11.00;;;;;;;-0.71;78.07;100614.22;2072747;28;20048;-80
2021/04/09 04:05:21;;;;;;;17.07;10.43;;;;;;;-0.73;77.82;100610.75;2081131;28;20034;-80
2021/04/09 04:06:22;;;;;;;19.80;11.77;;;;;;;-0.73;77.31;100618.44;2081046;28;20030;-78
2021/04/09 04:07:22;;;;;;;18.23;11.30;;;;;;;-0.77;77.63;100620.91;2081287;28;20056;-77
2021/04/09 04:08:22;;;;;;;18.00;10.93;;;;;;;-0.70;77.20;100617.66;2072867;28;20032;-77
2021/04/09 04:09:22;;;;;;;18.77;11.70;;;;;;;-0.86;77.67;100617.31;2071706;28;20022;-79
2021/04/09 04:10:23;;;;;;;19.10;10.93;;;;;;;-0.84;77.68;100619.91;2076728;28;20031;-84
2021/04/09 04:11:23;;;;;;;15.67;10.67;;;;;;;-0.77;77.75;100620.91;2081915;28;20392;-83
2021/04/09 04:12:23;;;;;;;19.53;11.30;;;;;;;-0.89;78.09;100609.56;2082013;28;20090;-81
2021/04/09 04:13:24;;;;;;;15.53;10.77;;;;;;;-0.97;78.64;100619.63;2079958;28;20033;-82
2021/04/09 04:14:24;;;;;;;16.63;10.90;;;;;;;-0.93;78.20;100620.56;2073253;28;20034;-82
2021/04/09 04:15:24;;;;;;;16.77;10.98;;;;;;;-0.97;78.62;100628.97;2073722;28;20034;-82
2021/04/09 04:16:25;;;;;;;16.70;11.60;;;;;;;-1.03;78.92;100619.47;2073668;28;20034;-83
2021/04/09 04:17:25;;;;;;;17.10;11.33;;;;;;;-0.90;78.64;100619.75;2073664;28;20030;-82
2021/04/09 04:18:26;;;;;;;19.30;11.10;;;;;;;-1.03;79.13;100619.47;2079581;28;20025;-83
2021/04/09 04:19:26;;;;;;;17.77;11.13;;;;;;;-1.03;79.47;100623.72;2081793;28;20108;-82
2021/04/09 04:20:26;;;;;;;19.10;11.50;;;;;;;-0.88;79.44;100623.22;2081927;28;20079;-83
2021/04/09 04:21:26;;;;;;;21.47;13.20;;;;;;;-0.89;79.26;100622.38;2081779;28;20071;-83
2021/04/09 04:22:27;;;;;;;17.53;11.90;;;;;;;-0.92;79.66;100627.41;2081608;28;20143;-83
2021/04/09 04:23:27;;;;;;;20.70;12.60;;;;;;;-0.94;79.99;100631.63;2072835;28;20022;-83
2021/04/09 04:24:27;;;;;;;21.63;12.80;;;;;;;-0.97;80.29;100631.53;2073032;28;20052;-83
2021/04/09 04:25:28;;;;;;;23.60;12.97;;;;;;;-0.97;80.53;100626.41;2072604;28;20038;-83
2021/04/09 04:26:28;;;;;;;23.60;13.90;;;;;;;-1.10;80.97;100625.25;2072968;28;20531;-83
2021/04/09 04:27:28;;;;;;;20.27;13.07;;;;;;;-1.00;81.19;100629.78;2081593;28;20025;-83
2021/04/09 04:28:29;;;;;;;23.00;12.50;;;;;;;-1.06;81.32;100629.63;2081634;28;20104;-83
2021/04/09 04:29:29;;;;;;;21.63;12.80;;;;;;;-1.00;81.32;100627.22;2081705;28;20022;-83
2021/04/09 04:30:29;;;;;;;18.33;11.47;;;;;;;-1.01;81.27;100628.03;2081669;28;20048;-83
2021/04/09 04:31:30;;;;;;;21.17;12.03;;;;;;;-1.08;81.32;100625.31;2081639;28;20023;-83
2021/04/09 04:32:30;;;;;;;18.57;12.03;;;;;;;-1.10;80.90;100617.59;2071008;28;20021;-83
2021/04/09 04:33:30;;;;;;;17.43;11.20;;;;;;;-1.03;80.89;100619.47;2070895;28;20141;-83
2021/04/09 04:34:31;;;;;;;20.73;11.43;;;;;;;-1.02;81.04;100623.75;2073172;28;20030;-82
2021/04/09 04:35:31;;;;;;;15.93;10.60;;;;;;;-0.83;80.13;100621.63;2072774;28;20664;-83
2021/04/09 04:36:31;;;;;;;17.13;10.20;;;;;;;-1.00;80.26;100624.66;2073221;28;20026;-83
2021/04/09 04:37:32;;;;;;;16.93;10.33;;;;;;;-0.99;80.25;100621.28;2072619;28;20047;-83
2021/04/09 04:38:32;;;;;;;17.63;10.77;;;;;;;-0.99;80.14;100612.75;2069090;28;20053;-83
2021/04/09 04:39:32;;;;;;;17.35;10.35;;;;;;;-1.06;80.45;100615.97;2072884;28;20029;-83
2021/04/09 04:40:33;;;;;;;23.53;11.37;;;;;;;-1.12;80.40;100614.13;2072597;28;20623;-83
2021/04/09 04:41:33;;;;;;;15.80;9.90;;;;;;;-1.16;80.78;100614.91;2072822;28;20488;-83
2021/04/09 04:42:33;;;;;;;15.87;10.73;;;;;;;-1.01;80.17;100616.97;2081218;28;20026;-83
2021/04/09 04:43:34;;;;;;;13.20;10.17;;;;;;;-1.05;80.19;100618.59;2081384;28;20026;-83
2021/04/09 04:44:34;;;;;;;15.07;10.23;;;;;;;-0.99;80.03;100620.44;2081514;28;20029;-83
2021/04/09 04:45:34;;;;;;;14.93;10.20;;;;;;;-0.99;80.00;100618.72;2072798;28;20022;-82